sensor_id;sensor_type;location;lat;lon;timestamp;P1;durP1;ratioP1;P2;durP2;ratioP2
45007;SDS011;30743;52.008;5.644;2023-03-16T00:01:55;4.50;;;2.70;;
45007;SDS011;30743;52.008;5.644;2023-03-16T00:04:21;4.40;;;2.85;;
45007;SDS011;30743;52.008;5.644;2023-03-16T00:06:46;5.00;;;2.70;;
45007;SDS011;30743;52.008;5.644;2023-03-16T00:09:12;17.33;;;3.33;;
45007;SDS011;30743;52.008;5.644;2023-03-16T00:11:37;6.57;;;2.95;;
45007;SDS011;30743;52.008;5.644;2023-03-16T00:14:03;7.38;;;3.15;;
45007;SDS011;30743;52.008;5.644;2023-03-16T00:16:28;5.00;;;3.00;;
45007;SDS011;30743;52.008;5.644;2023-03-16T00:18:54;6.78;;;3.10;;
45007;SDS011;30743;52.008;5.644;2023-03-16T00:21:22;5.13;;;3.13;;
45007;SDS011;30743;52.008;5.644;2023-03-16T00:23:48;5.35;;;2.92;;
45007;SDS011;30743;52.008;5.644;2023-03-16T00:26:14;3.33;;;2.47;;
45007;SDS011;30743;52.008;5.644;2023-03-16T00:28:39;5.68;;;2.97;;
45007;SDS011;30743;52.008;5.644;2023-03-16T00:31:07;4.82;;;2.75;;
45007;SDS011;30743;52.008;5.644;2023-03-16T00:33:36;3.88;;;2.80;;
45007;SDS011;30743;52.008;5.644;2023-03-16T00:36:02;4.50;;;2.72;;
45007;SDS011;30743;52.008;5.644;2023-03-16T00:38:33;4.97;;;3.10;;
45007;SDS011;30743;52.008;5.644;2023-03-16T00:41:03;5.30;;;3.22;;
45007;SDS011;30743;52.008;5.644;2023-03-16T00:43:31;4.28;;;3.05;;
45007;SDS011;30743;52.008;5.644;2023-03-16T00:46:05;5.97;;;3.00;;
45007;SDS011;30743;52.008;5.644;2023-03-16T00:48:36;3.58;;;2.60;;
45007;SDS011;30743;52.008;5.644;2023-03-16T00:51:03;4.60;;;2.92;;
45007;SDS011;30743;52.008;5.644;2023-03-16T00:53:33;4.93;;;2.97;;
45007;SDS011;30743;52.008;5.644;2023-03-16T00:56:01;7.45;;;3.00;;
45007;SDS011;30743;52.008;5.644;2023-03-16T00:58:28;5.72;;;3.00;;
45007;SDS011;30743;52.008;5.644;2023-03-16T01:00:59;5.03;;;3.38;;
45007;SDS011;30743;52.008;5.644;2023-03-16T01:03:28;4.70;;;3.00;;
45007;SDS011;30743;52.008;5.644;2023-03-16T01:05:54;7.10;;;3.00;;
45007;SDS011;30743;52.008;5.644;2023-03-16T01:08:23;4.32;;;3.10;;
45007;SDS011;30743;52.008;5.644;2023-03-16T01:10:51;4.13;;;2.95;;
45007;SDS011;30743;52.008;5.644;2023-03-16T01:13:18;5.75;;;3.00;;
45007;SDS011;30743;52.008;5.644;2023-03-16T01:15:44;5.20;;;2.90;;
45007;SDS011;30743;52.008;5.644;2023-03-16T01:18:10;4.07;;;2.95;;
45007;SDS011;30743;52.008;5.644;2023-03-16T01:20:37;4.57;;;2.92;;
45007;SDS011;30743;52.008;5.644;2023-03-16T01:23:03;5.95;;;3.22;;
45007;SDS011;30743;52.008;5.644;2023-03-16T01:25:29;5.18;;;2.83;;
45007;SDS011;30743;52.008;5.644;2023-03-16T01:27:54;5.28;;;3.08;;
45007;SDS011;30743;52.008;5.644;2023-03-16T01:30:20;6.55;;;3.45;;
45007;SDS011;30743;52.008;5.644;2023-03-16T01:32:45;4.90;;;3.15;;
45007;SDS011;30743;52.008;5.644;2023-03-16T01:35:11;4.50;;;3.05;;
45007;SDS011;30743;52.008;5.644;2023-03-16T01:37:36;5.72;;;3.63;;
45007;SDS011;30743;52.008;5.644;2023-03-16T01:40:02;4.43;;;2.97;;
45007;SDS011;30743;52.008;5.644;2023-03-16T01:42:30;7.25;;;3.17;;
45007;SDS011;30743;52.008;5.644;2023-03-16T01:44:57;4.95;;;2.90;;
45007;SDS011;30743;52.008;5.644;2023-03-16T01:47:29;4.90;;;3.60;;
45007;SDS011;30743;52.008;5.644;2023-03-16T01:50:01;5.30;;;3.05;;
45007;SDS011;30743;52.008;5.644;2023-03-16T01:52:29;7.47;;;2.75;;
45007;SDS011;30743;52.008;5.644;2023-03-16T01:57:34;3.55;;;2.50;;
45007;SDS011;30743;52.008;5.644;2023-03-16T02:02:50;7.30;;;3.17;;
45007;SDS011;30743;52.008;5.644;2023-03-16T02:05:21;5.28;;;3.15;;
45007;SDS011;30743;52.008;5.644;2023-03-16T02:07:51;7.78;;;2.95;;
45007;SDS011;30743;52.008;5.644;2023-03-16T02:10:23;7.97;;;3.58;;
45007;SDS011;30743;52.008;5.644;2023-03-16T02:12:50;5.30;;;2.83;;
45007;SDS011;30743;52.008;5.644;2023-03-16T02:15:17;6.55;;;2.70;;
45007;SDS011;30743;52.008;5.644;2023-03-16T02:17:43;8.95;;;3.50;;
45007;SDS011;30743;52.008;5.644;2023-03-16T02:23:00;4.60;;;3.10;;
45007;SDS011;30743;52.008;5.644;2023-03-16T02:25:32;5.22;;;3.10;;
45007;SDS011;30743;52.008;5.644;2023-03-16T02:28:31;4.32;;;2.70;;
45007;SDS011;30743;52.008;5.644;2023-03-16T02:31:02;7.93;;;3.40;;
45007;SDS011;30743;52.008;5.644;2023-03-16T02:33:28;4.57;;;2.92;;
45007;SDS011;30743;52.008;5.644;2023-03-16T02:35:56;5.35;;;3.15;;
45007;SDS011;30743;52.008;5.644;2023-03-16T02:38:21;4.50;;;3.08;;
45007;SDS011;30743;52.008;5.644;2023-03-16T02:40:53;6.57;;;2.97;;
45007;SDS011;30743;52.008;5.644;2023-03-16T02:43:24;7.35;;;2.75;;
45007;SDS011;30743;52.008;5.644;2023-03-16T02:45:57;3.88;;;2.72;;
45007;SDS011;30743;52.008;5.644;2023-03-16T02:48:30;4.15;;;3.00;;
45007;SDS011;30743;52.008;5.644;2023-03-16T02:50:59;6.18;;;3.17;;
45007;SDS011;30743;52.008;5.644;2023-03-16T02:53:25;4.40;;;3.00;;
45007;SDS011;30743;52.008;5.644;2023-03-16T02:55:50;4.03;;;3.03;;
45007;SDS011;30743;52.008;5.644;2023-03-16T02:58:16;4.30;;;3.03;;
45007;SDS011;30743;52.008;5.644;2023-03-16T03:00:42;4.68;;;3.15;;
45007;SDS011;30743;52.008;5.644;2023-03-16T03:03:09;5.80;;;2.60;;
45007;SDS011;30743;52.008;5.644;2023-03-16T03:05:35;4.68;;;2.97;;
45007;SDS011;30743;52.008;5.644;2023-03-16T03:08:02;6.05;;;3.05;;
45007;SDS011;30743;52.008;5.644;2023-03-16T03:10:28;4.20;;;2.90;;
45007;SDS011;30743;52.008;5.644;2023-03-16T03:12:55;7.47;;;3.05;;
45007;SDS011;30743;52.008;5.644;2023-03-16T03:15:21;4.47;;;2.88;;
45007;SDS011;30743;52.008;5.644;2023-03-16T03:17:47;4.20;;;2.80;;
45007;SDS011;30743;52.008;5.644;2023-03-16T03:20:12;5.15;;;2.90;;
45007;SDS011;30743;52.008;5.644;2023-03-16T03:22:46;4.45;;;2.90;;
45007;SDS011;30743;52.008;5.644;2023-03-16T03:25:13;4.47;;;2.92;;
45007;SDS011;30743;52.008;5.644;2023-03-16T03:27:41;4.57;;;2.97;;
45007;SDS011;30743;52.008;5.644;2023-03-16T03:30:08;3.45;;;2.60;;
45007;SDS011;30743;52.008;5.644;2023-03-16T03:32:35;5.80;;;2.88;;
45007;SDS011;30743;52.008;5.644;2023-03-16T03:35:00;5.18;;;3.00;;
45007;SDS011;30743;52.008;5.644;2023-03-16T03:37:26;4.78;;;2.47;;
45007;SDS011;30743;52.008;5.644;2023-03-16T03:39:52;5.95;;;2.70;;
45007;SDS011;30743;52.008;5.644;2023-03-16T03:42:18;4.32;;;3.20;;
45007;SDS011;30743;52.008;5.644;2023-03-16T03:44:43;7.50;;;2.75;;
45007;SDS011;30743;52.008;5.644;2023-03-16T03:47:09;6.80;;;3.33;;
45007;SDS011;30743;52.008;5.644;2023-03-16T03:49:34;5.65;;;3.05;;
45007;SDS011;30743;52.008;5.644;2023-03-16T03:52:00;5.40;;;3.00;;
45007;SDS011;30743;52.008;5.644;2023-03-16T03:54:28;5.30;;;2.97;;
45007;SDS011;30743;52.008;5.644;2023-03-16T03:56:54;5.00;;;2.78;;
45007;SDS011;30743;52.008;5.644;2023-03-16T03:59:20;3.22;;;2.28;;
45007;SDS011;30743;52.008;5.644;2023-03-16T04:01:46;4.57;;;2.85;;
45007;SDS011;30743;52.008;5.644;2023-03-16T04:04:13;6.03;;;2.75;;
45007;SDS011;30743;52.008;5.644;2023-03-16T04:06:38;4.75;;;2.80;;
45007;SDS011;30743;52.008;5.644;2023-03-16T04:09:05;5.38;;;2.90;;
45007;SDS011;30743;52.008;5.644;2023-03-16T04:11:32;5.72;;;2.70;;
45007;SDS011;30743;52.008;5.644;2023-03-16T04:13:57;3.83;;;2.65;;
45007;SDS011;30743;52.008;5.644;2023-03-16T04:16:23;5.05;;;3.20;;
45007;SDS011;30743;52.008;5.644;2023-03-16T04:18:51;6.07;;;2.83;;
45007;SDS011;30743;52.008;5.644;2023-03-16T04:21:18;8.30;;;3.75;;
45007;SDS011;30743;52.008;5.644;2023-03-16T04:23:44;4.72;;;2.78;;
45007;SDS011;30743;52.008;5.644;2023-03-16T04:26:10;4.70;;;3.35;;
45007;SDS011;30743;52.008;5.644;2023-03-16T04:28:35;4.35;;;2.88;;
45007;SDS011;30743;52.008;5.644;2023-03-16T04:31:02;5.32;;;3.42;;
45007;SDS011;30743;52.008;5.644;2023-03-16T04:33:29;6.20;;;2.92;;
45007;SDS011;30743;52.008;5.644;2023-03-16T04:35:56;6.60;;;2.88;;
45007;SDS011;30743;52.008;5.644;2023-03-16T04:38:21;3.97;;;2.85;;
45007;SDS011;30743;52.008;5.644;2023-03-16T04:40:47;4.95;;;3.05;;
45007;SDS011;30743;52.008;5.644;2023-03-16T04:43:13;6.72;;;3.10;;
45007;SDS011;30743;52.008;5.644;2023-03-16T04:45:38;4.78;;;3.17;;
45007;SDS011;30743;52.008;5.644;2023-03-16T04:48:05;6.30;;;3.03;;
45007;SDS011;30743;52.008;5.644;2023-03-16T04:50:30;7.30;;;3.08;;
45007;SDS011;30743;52.008;5.644;2023-03-16T04:52:56;6.03;;;3.15;;
45007;SDS011;30743;52.008;5.644;2023-03-16T04:55:21;3.75;;;2.70;;
45007;SDS011;30743;52.008;5.644;2023-03-16T04:57:47;5.38;;;2.75;;
45007;SDS011;30743;52.008;5.644;2023-03-16T05:00:13;6.10;;;3.05;;
45007;SDS011;30743;52.008;5.644;2023-03-16T05:02:47;4.65;;;3.00;;
45007;SDS011;30743;52.008;5.644;2023-03-16T05:05:13;5.25;;;2.75;;
45007;SDS011;30743;52.008;5.644;2023-03-16T05:07:40;3.65;;;2.40;;
45007;SDS011;30743;52.008;5.644;2023-03-16T05:10:07;5.00;;;2.90;;
45007;SDS011;30743;52.008;5.644;2023-03-16T05:12:33;4.00;;;2.70;;
45007;SDS011;30743;52.008;5.644;2023-03-16T05:14:59;3.58;;;2.45;;
45007;SDS011;30743;52.008;5.644;2023-03-16T05:17:26;5.60;;;3.03;;
45007;SDS011;30743;52.008;5.644;2023-03-16T05:19:52;4.43;;;2.63;;
45007;SDS011;30743;52.008;5.644;2023-03-16T05:22:17;4.53;;;2.78;;
45007;SDS011;30743;52.008;5.644;2023-03-16T05:24:43;5.47;;;2.85;;
45007;SDS011;30743;52.008;5.644;2023-03-16T05:27:08;3.67;;;2.30;;
45007;SDS011;30743;52.008;5.644;2023-03-16T05:29:34;4.85;;;3.10;;
45007;SDS011;30743;52.008;5.644;2023-03-16T05:31:59;3.65;;;2.42;;
45007;SDS011;30743;52.008;5.644;2023-03-16T05:34:25;4.05;;;2.33;;
45007;SDS011;30743;52.008;5.644;2023-03-16T05:36:51;3.33;;;2.42;;
45007;SDS011;30743;52.008;5.644;2023-03-16T05:39:17;4.78;;;2.75;;
45007;SDS011;30743;52.008;5.644;2023-03-16T05:41:43;5.80;;;3.13;;
45007;SDS011;30743;52.008;5.644;2023-03-16T05:44:08;4.93;;;2.97;;
45007;SDS011;30743;52.008;5.644;2023-03-16T05:46:34;3.65;;;2.60;;
45007;SDS011;30743;52.008;5.644;2023-03-16T05:49:00;3.45;;;2.50;;
45007;SDS011;30743;52.008;5.644;2023-03-16T05:51:26;5.95;;;3.28;;
45007;SDS011;30743;52.008;5.644;2023-03-16T05:53:52;3.80;;;2.20;;
45007;SDS011;30743;52.008;5.644;2023-03-16T05:56:24;4.07;;;2.53;;
45007;SDS011;30743;52.008;5.644;2023-03-16T05:58:51;5.88;;;2.60;;
45007;SDS011;30743;52.008;5.644;2023-03-16T06:01:18;4.43;;;2.72;;
45007;SDS011;30743;52.008;5.644;2023-03-16T06:03:45;4.28;;;2.50;;
45007;SDS011;30743;52.008;5.644;2023-03-16T06:06:12;3.60;;;1.95;;
45007;SDS011;30743;52.008;5.644;2023-03-16T06:08:39;5.28;;;2.88;;
45007;SDS011;30743;52.008;5.644;2023-03-16T06:11:04;3.72;;;2.58;;
45007;SDS011;30743;52.008;5.644;2023-03-16T06:13:30;4.43;;;2.42;;
45007;SDS011;30743;52.008;5.644;2023-03-16T06:15:55;4.97;;;2.42;;
45007;SDS011;30743;52.008;5.644;2023-03-16T06:18:21;5.80;;;3.28;;
45007;SDS011;30743;52.008;5.644;2023-03-16T06:20:46;4.93;;;3.05;;
45007;SDS011;30743;52.008;5.644;2023-03-16T06:23:12;3.95;;;2.55;;
45007;SDS011;30743;52.008;5.644;2023-03-16T06:25:38;4.88;;;2.90;;
45007;SDS011;30743;52.008;5.644;2023-03-16T06:28:04;5.50;;;2.90;;
45007;SDS011;30743;52.008;5.644;2023-03-16T06:30:30;3.65;;;2.03;;
45007;SDS011;30743;52.008;5.644;2023-03-16T06:32:55;3.28;;;2.45;;
45007;SDS011;30743;52.008;5.644;2023-03-16T06:35:23;3.65;;;2.55;;
45007;SDS011;30743;52.008;5.644;2023-03-16T06:37:49;4.25;;;3.00;;
45007;SDS011;30743;52.008;5.644;2023-03-16T06:40:15;5.75;;;2.58;;
45007;SDS011;30743;52.008;5.644;2023-03-16T06:42:41;5.60;;;2.95;;
45007;SDS011;30743;52.008;5.644;2023-03-16T06:45:07;4.45;;;2.83;;
45007;SDS011;30743;52.008;5.644;2023-03-16T06:47:34;5.75;;;3.00;;
45007;SDS011;30743;52.008;5.644;2023-03-16T06:49:59;6.78;;;2.58;;
45007;SDS011;30743;52.008;5.644;2023-03-16T06:52:25;4.32;;;2.80;;
45007;SDS011;30743;52.008;5.644;2023-03-16T06:54:50;5.07;;;3.13;;
45007;SDS011;30743;52.008;5.644;2023-03-16T06:57:16;4.63;;;2.88;;
45007;SDS011;30743;52.008;5.644;2023-03-16T06:59:41;5.47;;;2.72;;
45007;SDS011;30743;52.008;5.644;2023-03-16T07:02:09;8.07;;;2.60;;
45007;SDS011;30743;52.008;5.644;2023-03-16T07:04:37;4.93;;;2.47;;
45007;SDS011;30743;52.008;5.644;2023-03-16T07:07:02;5.05;;;2.60;;
45007;SDS011;30743;52.008;5.644;2023-03-16T07:09:28;3.95;;;2.60;;
45007;SDS011;30743;52.008;5.644;2023-03-16T07:11:53;6.40;;;2.83;;
45007;SDS011;30743;52.008;5.644;2023-03-16T07:14:19;5.80;;;3.00;;
45007;SDS011;30743;52.008;5.644;2023-03-16T07:16:45;4.13;;;1.95;;
45007;SDS011;30743;52.008;5.644;2023-03-16T07:19:10;3.92;;;2.20;;
45007;SDS011;30743;52.008;5.644;2023-03-16T07:21:36;6.55;;;2.47;;
45007;SDS011;30743;52.008;5.644;2023-03-16T07:24:04;3.57;;;2.40;;
45007;SDS011;30743;52.008;5.644;2023-03-16T07:26:31;7.57;;;2.47;;
45007;SDS011;30743;52.008;5.644;2023-03-16T07:28:57;4.40;;;2.28;;
45007;SDS011;30743;52.008;5.644;2023-03-16T07:31:23;4.10;;;2.75;;
45007;SDS011;30743;52.008;5.644;2023-03-16T07:33:49;2.70;;;2.08;;
45007;SDS011;30743;52.008;5.644;2023-03-16T07:36:14;2.97;;;2.10;;
45007;SDS011;30743;52.008;5.644;2023-03-16T07:38:40;6.88;;;2.58;;
45007;SDS011;30743;52.008;5.644;2023-03-16T07:41:06;4.57;;;2.50;;
45007;SDS011;30743;52.008;5.644;2023-03-16T07:43:32;3.30;;;2.25;;
45007;SDS011;30743;52.008;5.644;2023-03-16T07:45:58;4.10;;;2.53;;
45007;SDS011;30743;52.008;5.644;2023-03-16T07:48:23;5.03;;;2.55;;
45007;SDS011;30743;52.008;5.644;2023-03-16T07:50:49;6.47;;;2.35;;
45007;SDS011;30743;52.008;5.644;2023-03-16T07:53:15;5.93;;;3.03;;
45007;SDS011;30743;52.008;5.644;2023-03-16T07:55:41;4.35;;;2.65;;
45007;SDS011;30743;52.008;5.644;2023-03-16T07:58:08;7.53;;;2.97;;
45007;SDS011;30743;52.008;5.644;2023-03-16T08:00:34;6.70;;;3.22;;
45007;SDS011;30743;52.008;5.644;2023-03-16T08:03:00;3.40;;;2.40;;
45007;SDS011;30743;52.008;5.644;2023-03-16T08:05:26;7.82;;;3.13;;
45007;SDS011;30743;52.008;5.644;2023-03-16T08:07:53;5.75;;;2.63;;
45007;SDS011;30743;52.008;5.644;2023-03-16T08:10:20;6.03;;;2.75;;
45007;SDS011;30743;52.008;5.644;2023-03-16T08:12:45;7.28;;;3.00;;
45007;SDS011;30743;52.008;5.644;2023-03-16T08:15:11;5.22;;;2.63;;
45007;SDS011;30743;52.008;5.644;2023-03-16T08:17:37;6.20;;;2.58;;
45007;SDS011;30743;52.008;5.644;2023-03-16T08:20:05;6.28;;;2.63;;
45007;SDS011;30743;52.008;5.644;2023-03-16T08:22:34;5.37;;;2.53;;
45007;SDS011;30743;52.008;5.644;2023-03-16T08:25:00;4.88;;;2.70;;
45007;SDS011;30743;52.008;5.644;2023-03-16T08:27:27;5.18;;;3.03;;
45007;SDS011;30743;52.008;5.644;2023-03-16T08:29:53;5.03;;;2.95;;
45007;SDS011;30743;52.008;5.644;2023-03-16T08:32:19;4.35;;;2.83;;
45007;SDS011;30743;52.008;5.644;2023-03-16T08:34:45;4.63;;;2.75;;
45007;SDS011;30743;52.008;5.644;2023-03-16T08:37:11;6.32;;;2.20;;
45007;SDS011;30743;52.008;5.644;2023-03-16T08:39:39;4.35;;;2.63;;
45007;SDS011;30743;52.008;5.644;2023-03-16T08:42:06;5.10;;;2.75;;
45007;SDS011;30743;52.008;5.644;2023-03-16T08:44:32;6.22;;;2.72;;
45007;SDS011;30743;52.008;5.644;2023-03-16T08:46:57;5.88;;;2.65;;
45007;SDS011;30743;52.008;5.644;2023-03-16T08:49:24;3.97;;;2.58;;
45007;SDS011;30743;52.008;5.644;2023-03-16T08:51:49;10.63;;;2.90;;
45007;SDS011;30743;52.008;5.644;2023-03-16T08:54:15;5.70;;;2.90;;
45007;SDS011;30743;52.008;5.644;2023-03-16T08:56:41;4.38;;;2.22;;
45007;SDS011;30743;52.008;5.644;2023-03-16T08:59:07;6.18;;;2.63;;
45007;SDS011;30743;52.008;5.644;2023-03-16T09:01:33;5.63;;;2.70;;
45007;SDS011;30743;52.008;5.644;2023-03-16T09:03:58;5.10;;;2.42;;
45007;SDS011;30743;52.008;5.644;2023-03-16T09:06:25;3.90;;;1.92;;
45007;SDS011;30743;52.008;5.644;2023-03-16T09:08:51;5.05;;;2.65;;
45007;SDS011;30743;52.008;5.644;2023-03-16T09:11:18;2.70;;;1.70;;
45007;SDS011;30743;52.008;5.644;2023-03-16T09:13:44;5.55;;;2.67;;
45007;SDS011;30743;52.008;5.644;2023-03-16T09:16:10;3.63;;;2.53;;
45007;SDS011;30743;52.008;5.644;2023-03-16T09:18:38;6.38;;;2.70;;
45007;SDS011;30743;52.008;5.644;2023-03-16T09:21:05;4.80;;;2.20;;
45007;SDS011;30743;52.008;5.644;2023-03-16T09:23:32;3.63;;;2.22;;
45007;SDS011;30743;52.008;5.644;2023-03-16T09:26:02;4.70;;;2.47;;
45007;SDS011;30743;52.008;5.644;2023-03-16T09:28:29;4.68;;;2.17;;
45007;SDS011;30743;52.008;5.644;2023-03-16T09:30:58;4.95;;;2.75;;
45007;SDS011;30743;52.008;5.644;2023-03-16T09:35:52;5.28;;;2.45;;
45007;SDS011;30743;52.008;5.644;2023-03-16T09:38:19;3.65;;;2.25;;
45007;SDS011;30743;52.008;5.644;2023-03-16T09:40:47;3.75;;;2.40;;
45007;SDS011;30743;52.008;5.644;2023-03-16T09:43:36;2.50;;;1.70;;
45007;SDS011;30743;52.008;5.644;2023-03-16T09:48:53;4.32;;;2.33;;
45007;SDS011;30743;52.008;5.644;2023-03-16T09:51:54;5.07;;;2.63;;
45007;SDS011;30743;52.008;5.644;2023-03-16T09:56:53;5.13;;;2.88;;
45007;SDS011;30743;52.008;5.644;2023-03-16T09:59:21;5.38;;;2.72;;
45007;SDS011;30743;52.008;5.644;2023-03-16T10:07:41;5.00;;;2.15;;
45007;SDS011;30743;52.008;5.644;2023-03-16T10:12:53;7.10;;;2.30;;
45007;SDS011;30743;52.008;5.644;2023-03-16T10:15:24;3.65;;;2.58;;
45007;SDS011;30743;52.008;5.644;2023-03-16T10:17:54;3.25;;;2.33;;
45007;SDS011;30743;52.008;5.644;2023-03-16T10:20:24;5.65;;;2.00;;
45007;SDS011;30743;52.008;5.644;2023-03-16T10:22:52;3.90;;;1.83;;
45007;SDS011;30743;52.008;5.644;2023-03-16T10:27:51;4.25;;;2.00;;
45007;SDS011;30743;52.008;5.644;2023-03-16T10:32:46;4.30;;;2.13;;
45007;SDS011;30743;52.008;5.644;2023-03-16T10:35:19;2.83;;;1.50;;
45007;SDS011;30743;52.008;5.644;2023-03-16T10:38:01;4.00;;;1.75;;
45007;SDS011;30743;52.008;5.644;2023-03-16T10:40:30;2.78;;;1.85;;
45007;SDS011;30743;52.008;5.644;2023-03-16T10:43:03;3.92;;;1.60;;
45007;SDS011;30743;52.008;5.644;2023-03-16T10:48:11;3.20;;;1.60;;
45007;SDS011;30743;52.008;5.644;2023-03-16T10:50:40;3.67;;;1.98;;
45007;SDS011;30743;52.008;5.644;2023-03-16T10:53:18;2.63;;;1.60;;
45007;SDS011;30743;52.008;5.644;2023-03-16T10:55:55;2.38;;;1.42;;
45007;SDS011;30743;52.008;5.644;2023-03-16T10:58:28;3.95;;;1.70;;
45007;SDS011;30743;52.008;5.644;2023-03-16T11:00:54;3.65;;;2.20;;
45007;SDS011;30743;52.008;5.644;2023-03-16T11:03:24;4.00;;;1.88;;
45007;SDS011;30743;52.008;5.644;2023-03-16T11:06:01;4.90;;;1.92;;
45007;SDS011;30743;52.008;5.644;2023-03-16T11:08:38;6.32;;;2.13;;
45007;SDS011;30743;52.008;5.644;2023-03-16T11:11:09;2.83;;;1.60;;
45007;SDS011;30743;52.008;5.644;2023-03-16T11:13:42;4.07;;;2.03;;
45007;SDS011;30743;52.008;5.644;2023-03-16T11:18:56;3.25;;;1.90;;
45007;SDS011;30743;52.008;5.644;2023-03-16T11:24:59;4.82;;;1.70;;
45007;SDS011;30743;52.008;5.644;2023-03-16T11:27:19;9.57;;;2.22;;
45007;SDS011;30743;52.008;5.644;2023-03-16T11:30:05;3.88;;;1.90;;
45007;SDS011;30743;52.008;5.644;2023-03-16T11:32:54;6.82;;;2.30;;
45007;SDS011;30743;52.008;5.644;2023-03-16T11:45:45;3.40;;;1.80;;
45007;SDS011;30743;52.008;5.644;2023-03-16T11:48:33;5.55;;;1.92;;
45007;SDS011;30743;52.008;5.644;2023-03-16T11:56:34;3.45;;;2.00;;
45007;SDS011;30743;52.008;5.644;2023-03-16T12:02:11;3.58;;;2.35;;
45007;SDS011;30743;52.008;5.644;2023-03-16T12:10:26;3.80;;;1.80;;
45007;SDS011;30743;52.008;5.644;2023-03-16T12:13:12;4.05;;;2.08;;
45007;SDS011;30743;52.008;5.644;2023-03-16T12:15:47;3.90;;;1.70;;
45007;SDS011;30743;52.008;5.644;2023-03-16T12:18:19;4.28;;;1.92;;
45007;SDS011;30743;52.008;5.644;2023-03-16T12:21:10;2.97;;;1.85;;
45007;SDS011;30743;52.008;5.644;2023-03-16T12:23:51;3.05;;;2.10;;
45007;SDS011;30743;52.008;5.644;2023-03-16T12:26:29;2.65;;;1.58;;
45007;SDS011;30743;52.008;5.644;2023-03-16T12:29:00;4.43;;;1.60;;
45007;SDS011;30743;52.008;5.644;2023-03-16T12:31:40;2.72;;;1.90;;
45007;SDS011;30743;52.008;5.644;2023-03-16T12:34:25;3.65;;;1.85;;
45007;SDS011;30743;52.008;5.644;2023-03-16T12:37:05;2.58;;;1.45;;
45007;SDS011;30743;52.008;5.644;2023-03-16T12:39:52;3.60;;;1.55;;
45007;SDS011;30743;52.008;5.644;2023-03-16T12:42:23;4.07;;;1.70;;
45007;SDS011;30743;52.008;5.644;2023-03-16T12:44:55;5.45;;;2.00;;
45007;SDS011;30743;52.008;5.644;2023-03-16T12:49:53;4.53;;;1.93;;
45007;SDS011;30743;52.008;5.644;2023-03-16T12:52:27;3.90;;;1.70;;
45007;SDS011;30743;52.008;5.644;2023-03-16T12:55:05;3.80;;;1.77;;
45007;SDS011;30743;52.008;5.644;2023-03-16T12:57:38;4.53;;;1.50;;
45007;SDS011;30743;52.008;5.644;2023-03-16T13:00:04;3.03;;;1.55;;
45007;SDS011;30743;52.008;5.644;2023-03-16T13:02:34;3.78;;;1.77;;
45007;SDS011;30743;52.008;5.644;2023-03-16T13:07:34;3.55;;;1.70;;
45007;SDS011;30743;52.008;5.644;2023-03-16T13:10:06;3.25;;;1.63;;
45007;SDS011;30743;52.008;5.644;2023-03-16T13:12:36;4.43;;;2.20;;
45007;SDS011;30743;52.008;5.644;2023-03-16T13:17:50;4.63;;;1.80;;
45007;SDS011;30743;52.008;5.644;2023-03-16T13:20:33;4.00;;;1.40;;
45007;SDS011;30743;52.008;5.644;2023-03-16T13:25:57;4.85;;;1.80;;
45007;SDS011;30743;52.008;5.644;2023-03-16T13:28:30;3.22;;;1.48;;
45007;SDS011;30743;52.008;5.644;2023-03-16T13:33:25;3.28;;;1.30;;
45007;SDS011;30743;52.008;5.644;2023-03-16T13:35:54;3.63;;;1.73;;
45007;SDS011;30743;52.008;5.644;2023-03-16T13:40:52;3.28;;;1.92;;
45007;SDS011;30743;52.008;5.644;2023-03-16T13:43:21;3.08;;;1.70;;
45007;SDS011;30743;52.008;5.644;2023-03-16T13:45:48;4.13;;;1.67;;
45007;SDS011;30743;52.008;5.644;2023-03-16T13:48:15;4.30;;;1.70;;
45007;SDS011;30743;52.008;5.644;2023-03-16T13:50:42;5.82;;;1.60;;
45007;SDS011;30743;52.008;5.644;2023-03-16T13:53:13;2.45;;;1.50;;
45007;SDS011;30743;52.008;5.644;2023-03-16T13:55:43;2.72;;;1.60;;
45007;SDS011;30743;52.008;5.644;2023-03-16T13:58:13;2.60;;;1.50;;
45007;SDS011;30743;52.008;5.644;2023-03-16T14:00:45;4.90;;;1.80;;
45007;SDS011;30743;52.008;5.644;2023-03-16T14:03:17;9.15;;;2.17;;
45007;SDS011;30743;52.008;5.644;2023-03-16T14:05:46;5.78;;;1.63;;
45007;SDS011;30743;52.008;5.644;2023-03-16T14:08:19;2.72;;;1.50;;
45007;SDS011;30743;52.008;5.644;2023-03-16T14:10:48;3.88;;;1.33;;
45007;SDS011;30743;52.008;5.644;2023-03-16T14:15:53;3.22;;;1.35;;
45007;SDS011;30743;52.008;5.644;2023-03-16T14:18:21;3.53;;;1.60;;
45007;SDS011;30743;52.008;5.644;2023-03-16T14:20:51;3.60;;;1.70;;
45007;SDS011;30743;52.008;5.644;2023-03-16T14:23:26;2.65;;;1.55;;
45007;SDS011;30743;52.008;5.644;2023-03-16T14:25:57;4.78;;;1.20;;
45007;SDS011;30743;52.008;5.644;2023-03-16T14:28:27;4.15;;;1.67;;
45007;SDS011;30743;52.008;5.644;2023-03-16T14:31:09;3.70;;;1.25;;
45007;SDS011;30743;52.008;5.644;2023-03-16T14:33:37;3.67;;;1.30;;
45007;SDS011;30743;52.008;5.644;2023-03-16T14:36:13;3.17;;;1.20;;
45007;SDS011;30743;52.008;5.644;2023-03-16T14:38:45;3.92;;;1.17;;
45007;SDS011;30743;52.008;5.644;2023-03-16T14:41:20;3.63;;;1.17;;
45007;SDS011;30743;52.008;5.644;2023-03-16T14:43:53;3.22;;;1.35;;
45007;SDS011;30743;52.008;5.644;2023-03-16T14:46:26;3.65;;;1.30;;
45007;SDS011;30743;52.008;5.644;2023-03-16T14:51:27;2.92;;;1.20;;
45007;SDS011;30743;52.008;5.644;2023-03-16T14:53:54;4.57;;;1.85;;
45007;SDS011;30743;52.008;5.644;2023-03-16T14:56:19;4.20;;;1.30;;
45007;SDS011;30743;52.008;5.644;2023-03-16T14:58:45;2.40;;;1.30;;
45007;SDS011;30743;52.008;5.644;2023-03-16T15:01:15;2.30;;;1.15;;
45007;SDS011;30743;52.008;5.644;2023-03-16T15:03:42;2.40;;;1.20;;
45007;SDS011;30743;52.008;5.644;2023-03-16T15:06:09;3.70;;;1.13;;
45007;SDS011;30743;52.008;5.644;2023-03-16T15:08:35;2.97;;;1.42;;
45007;SDS011;30743;52.008;5.644;2023-03-16T15:11:08;4.82;;;1.20;;
45007;SDS011;30743;52.008;5.644;2023-03-16T15:13:34;2.13;;;1.15;;
45007;SDS011;30743;52.008;5.644;2023-03-16T15:16:06;4.45;;;1.20;;
45007;SDS011;30743;52.008;5.644;2023-03-16T15:18:35;5.30;;;1.35;;
45007;SDS011;30743;52.008;5.644;2023-03-16T15:21:03;3.70;;;1.40;;
45007;SDS011;30743;52.008;5.644;2023-03-16T15:23:34;2.53;;;1.40;;
45007;SDS011;30743;52.008;5.644;2023-03-16T15:25:59;6.15;;;1.70;;
45007;SDS011;30743;52.008;5.644;2023-03-16T15:28:26;6.55;;;1.48;;
45007;SDS011;30743;52.008;5.644;2023-03-16T15:30:54;5.97;;;1.60;;
45007;SDS011;30743;52.008;5.644;2023-03-16T15:33:21;4.22;;;1.60;;
45007;SDS011;30743;52.008;5.644;2023-03-16T15:35:47;2.83;;;1.30;;
45007;SDS011;30743;52.008;5.644;2023-03-16T15:38:15;3.40;;;1.70;;
45007;SDS011;30743;52.008;5.644;2023-03-16T15:40:47;2.17;;;1.13;;
45007;SDS011;30743;52.008;5.644;2023-03-16T15:43:15;3.08;;;1.25;;
45007;SDS011;30743;52.008;5.644;2023-03-16T15:45:43;3.38;;;1.40;;
45007;SDS011;30743;52.008;5.644;2023-03-16T15:48:10;5.35;;;1.42;;
45007;SDS011;30743;52.008;5.644;2023-03-16T15:50:36;3.40;;;1.50;;
45007;SDS011;30743;52.008;5.644;2023-03-16T15:53:07;5.05;;;1.70;;
45007;SDS011;30743;52.008;5.644;2023-03-16T15:55:38;6.57;;;2.13;;
45007;SDS011;30743;52.008;5.644;2023-03-16T15:58:18;1.88;;;1.25;;
45007;SDS011;30743;52.008;5.644;2023-03-16T16:00:49;4.38;;;1.17;;
45007;SDS011;30743;52.008;5.644;2023-03-16T16:03:15;2.05;;;1.20;;
45007;SDS011;30743;52.008;5.644;2023-03-16T16:05:41;3.28;;;1.10;;
45007;SDS011;30743;52.008;5.644;2023-03-16T16:08:06;2.70;;;1.20;;
45007;SDS011;30743;52.008;5.644;2023-03-16T16:10:32;2.83;;;1.38;;
45007;SDS011;30743;52.008;5.644;2023-03-16T16:12:58;2.55;;;1.38;;
45007;SDS011;30743;52.008;5.644;2023-03-16T16:15:29;5.82;;;1.20;;
45007;SDS011;30743;52.008;5.644;2023-03-16T16:17:58;4.35;;;1.38;;
45007;SDS011;30743;52.008;5.644;2023-03-16T16:20:31;2.22;;;1.35;;